Terminal Aerodrome Forecast
Issued by NWS

Home | Current Version | Previous Version | Text Only | Print | Product List | Glossary On
Versions: 1 2 3 4 5 6 7 8 9 10 11 12 13 14
000
FTUS46 KHNX 011723
TAFBFL
TAF
KBFL 011723Z 0118/0218 VRB04KT P6SM -SHRA SCT080 BKN150
     FM012100 32007KT P6SM VCSH BKN060 OVC070
     FM020600 VRB04KT P6SM BKN060 OVC070 PROB30 0206/0207 P6SM -SHRA
      OVC050
     FM021200 VRB03KT P6SM OVC250=

USA.gov is the U.S. government's official web portal to all federal, state and local government web resources and services.